Time;durP1;ratioP1;P1;durP2;ratioP2;P2;SDS_P1;SDS_P2;PMS_P1;PMS_P2;Temp;Humidity;BMP_temperature;BMP_pressure;BME280_temperature;BME280_humidity;BME280_pressure;Samples;Min_cycle;Max_cycle;Signal;HPM_P1;HPM_P2
2020/12/28 00:02:21;;;;;;;0.40;0.20;;;6.60;99.90;;;;;;5054341;28;20436;-59
2020/12/28 00:04:47;;;;;;;0.32;0.10;;;6.60;99.90;;;;;;5054741;28;20459;-59
2020/12/28 00:07:16;;;;;;;0.40;0.15;;;6.60;99.90;;;;;;5054136;28;20865;-57
2020/12/28 00:09:43;;;;;;;0.30;0.10;;;6.50;99.90;;;;;;5055617;28;20502;-59
2020/12/28 00:12:10;;;;;;;0.40;0.10;;;6.50;99.90;;;;;;5054243;28;20440;-58
2020/12/28 00:14:37;;;;;;;0.30;0.10;;;6.50;99.90;;;;;;5056238;28;20417;-59
2020/12/28 00:17:04;;;;;;;0.30;0.10;;;6.50;99.90;;;;;;5056306;28;20775;-59
2020/12/28 00:19:31;;;;;;;0.32;0.10;;;6.60;99.90;;;;;;5055881;28;20483;-59
2020/12/28 00:21:57;;;;;;;0.40;0.10;;;6.50;99.90;;;;;;5056627;28;20429;-59
2020/12/28 00:24:25;;;;;;;0.40;0.10;;;6.40;99.90;;;;;;5056399;28;20418;-58
2020/12/28 00:26:52;;;;;;;0.40;0.20;;;6.40;99.90;;;;;;5056083;28;20448;-58
2020/12/28 00:29:19;;;;;;;0.30;0.10;;;6.40;99.90;;;;;;5055754;28;20440;-58
2020/12/28 00:31:46;;;;;;;0.30;0.10;;;6.40;99.90;;;;;;5055872;28;20437;-59
2020/12/28 00:34:13;;;;;;;0.50;0.15;;;6.40;99.90;;;;;;5053801;28;20453;-57
2020/12/28 00:36:40;;;;;;;0.40;0.10;;;6.40;99.90;;;;;;5054631;28;20433;-59
2020/12/28 00:39:07;;;;;;;0.30;0.10;;;6.40;99.90;;;;;;5054620;28;20430;-59
2020/12/28 00:41:34;;;;;;;0.40;0.20;;;6.40;99.90;;;;;;5053139;28;20845;-59
2020/12/28 00:44:01;;;;;;;0.40;0.10;;;6.50;99.90;;;;;;5054375;28;20456;-59
2020/12/28 00:46:28;;;;;;;0.30;0.10;;;6.40;99.90;;;;;;5053859;28;20483;-59
2020/12/28 00:48:56;;;;;;;0.40;0.10;;;6.40;99.90;;;;;;5055218;28;20732;-59
2020/12/28 00:51:23;;;;;;;1.33;0.10;;;6.30;99.90;;;;;;5053854;28;20853;-59
2020/12/28 00:53:50;;;;;;;0.40;0.10;;;6.20;99.90;;;;;;5053908;28;20409;-58
2020/12/28 00:56:17;;;;;;;0.38;0.10;;;6.20;99.90;;;;;;5055847;28;20426;-59
2020/12/28 00:58:45;;;;;;;0.40;0.20;;;6.30;99.90;;;;;;5054620;28;20452;-58
2020/12/28 01:01:11;;;;;;;0.38;0.10;;;6.30;99.90;;;;;;5054149;28;20597;-59
2020/12/28 01:03:38;;;;;;;0.40;0.20;;;6.20;99.90;;;;;;5052652;28;20511;-59
2020/12/28 01:06:06;;;;;;;0.50;0.20;;;6.20;99.90;;;;;;5051190;28;20437;-59
2020/12/28 01:08:33;;;;;;;0.50;0.20;;;6.20;99.90;;;;;;5052553;28;20421;-59
2020/12/28 01:10:59;;;;;;;0.43;0.10;;;6.20;99.90;;;;;;5052487;28;20713;-59
2020/12/28 01:13:26;;;;;;;0.40;0.10;;;6.30;99.90;;;;;;5052735;28;20421;-59
2020/12/28 01:15:54;;;;;;;0.38;0.10;;;6.30;99.90;;;;;;5053695;28;20433;-59
2020/12/28 01:18:21;;;;;;;0.60;0.10;;;6.30;99.90;;;;;;5052741;28;20681;-59
2020/12/28 01:20:48;;;;;;;0.40;0.20;;;6.30;99.90;;;;;;5054413;28;20456;-59
2020/12/28 01:23:14;;;;;;;1.23;0.15;;;6.40;99.90;;;;;;5055153;28;20621;-58
2020/12/28 01:25:43;;;;;;;0.30;0.10;;;6.40;99.90;;;;;;5055076;28;20437;-58
2020/12/28 01:28:10;;;;;;;0.32;0.15;;;6.30;99.90;;;;;;5054883;28;20460;-59
2020/12/28 01:30:36;;;;;;;0.47;0.20;;;6.20;99.90;;;;;;5053695;28;20429;-59
2020/12/28 01:33:04;;;;;;;0.40;0.20;;;6.20;99.90;;;;;;5053743;28;20425;-59
2020/12/28 01:35:31;;;;;;;0.40;0.10;;;6.20;99.90;;;;;;5053440;28;20859;-59
2020/12/28 01:37:58;;;;;;;0.30;0.10;;;6.20;99.90;;;;;;5052939;28;20487;-59
2020/12/28 01:40:25;;;;;;;0.30;0.10;;;6.20;99.90;;;;;;5052669;28;20710;-59
2020/12/28 01:42:51;;;;;;;0.30;0.20;;;6.30;99.90;;;;;;5053948;28;20877;-59
2020/12/28 01:45:18;;;;;;;0.40;0.20;;;6.20;99.90;;;;;;5053916;28;22681;-59
2020/12/28 01:47:45;;;;;;;0.30;0.10;;;6.30;99.90;;;;;;5054116;28;20482;-59
2020/12/28 01:50:13;;;;;;;0.40;0.20;;;6.30;99.90;;;;;;5054465;28;20500;-59
2020/12/28 01:52:40;;;;;;;0.45;0.10;;;6.20;99.90;;;;;;5054469;28;20437;-59
2020/12/28 01:55:08;;;;;;;0.30;0.10;;;6.30;99.90;;;;;;5053640;28;20421;-59
2020/12/28 01:57:35;;;;;;;0.30;0.10;;;6.20;99.90;;;;;;5053460;28;20433;-61
2020/12/28 02:00:02;;;;;;;0.30;0.20;;;6.30;99.90;;;;;;5054481;28;20898;-59
2020/12/28 02:02:31;;;;;;;0.38;0.10;;;6.30;99.90;;;;;;5052992;28;20464;-59
2020/12/28 02:04:58;;;;;;;0.40;0.17;;;6.20;99.90;;;;;;5053949;28;20529;-59
2020/12/28 02:07:31;;;;;;;0.40;0.20;;;6.30;99.90;;;;;;5051927;28;20976;-59
2020/12/28 02:09:57;;;;;;;0.40;0.20;;;6.30;99.90;;;;;;5054448;28;20429;-59
2020/12/28 02:12:24;;;;;;;0.32;0.20;;;6.40;99.90;;;;;;5054010;28;20425;-59
2020/12/28 02:14:51;;;;;;;0.38;0.10;;;6.30;99.90;;;;;;5054587;28;20417;-62
2020/12/28 02:17:18;;;;;;;0.40;0.20;;;6.40;99.90;;;;;;5053794;28;20774;-59
2020/12/28 02:19:45;;;;;;;0.40;0.15;;;6.40;99.90;;;;;;5053267;28;20872;-58
2020/12/28 02:22:12;;;;;;;0.30;0.20;;;6.40;99.90;;;;;;5053583;28;20833;-59
2020/12/28 02:24:39;;;;;;;0.40;0.20;;;6.40;99.90;;;;;;5053285;28;21088;-58
2020/12/28 02:27:06;;;;;;;0.30;0.13;;;6.30;99.90;;;;;;5053231;28;20440;-59
2020/12/28 02:29:33;;;;;;;0.43;0.20;;;6.30;99.90;;;;;;5053058;28;20745;-59
2020/12/28 02:32:00;;;;;;;0.30;0.17;;;6.20;99.90;;;;;;5053850;28;20876;-60
2020/12/28 02:34:27;;;;;;;0.30;0.20;;;6.20;99.90;;;;;;5054515;28;20741;-59
2020/12/28 02:36:54;;;;;;;0.30;0.20;;;6.20;99.90;;;;;;5054674;28;20429;-60
2020/12/28 02:39:21;;;;;;;0.50;0.20;;;6.20;99.90;;;;;;5054736;28;20581;-60
2020/12/28 02:41:48;;;;;;;0.30;0.20;;;6.20;99.90;;;;;;5054441;28;20433;-59
2020/12/28 02:44:15;;;;;;;0.30;0.10;;;6.10;99.90;;;;;;5054545;28;20844;-59
2020/12/28 02:46:42;;;;;;;0.40;0.20;;;6.10;99.90;;;;;;5052173;28;20817;-59
2020/12/28 02:49:09;;;;;;;0.30;0.20;;;6.00;99.90;;;;;;5052408;28;20503;-58
2020/12/28 02:51:36;;;;;;;0.40;0.20;;;6.00;99.90;;;;;;5050550;28;20463;-59
2020/12/28 02:54:03;;;;;;;0.30;0.20;;;5.90;99.90;;;;;;5052727;28;20717;-59
2020/12/28 02:56:30;;;;;;;0.40;0.20;;;5.90;99.90;;;;;;5051977;28;20516;-59
2020/12/28 02:58:57;;;;;;;0.38;0.20;;;5.80;99.90;;;;;;5052855;28;20452;-58
2020/12/28 03:01:24;;;;;;;0.40;0.20;;;5.70;99.90;;;;;;5052742;28;20433;-59
2020/12/28 03:03:51;;;;;;;0.40;0.20;;;5.70;99.90;;;;;;5055290;28;20425;-59
2020/12/28 03:06:18;;;;;;;0.40;0.20;;;5.70;99.90;;;;;;5057880;28;20473;-62
2020/12/28 03:08:44;;;;;;;0.70;0.10;;;5.60;99.90;;;;;;5057683;28;20428;-59
2020/12/28 03:11:11;;;;;;;0.30;0.20;;;5.70;99.90;;;;;;5058267;28;20433;-58
2020/12/28 03:13:39;;;;;;;0.40;0.20;;;5.70;99.90;;;;;;5058075;28;20428;-59
2020/12/28 03:16:06;;;;;;;0.40;0.20;;;5.70;99.90;;;;;;5058032;28;20436;-58
2020/12/28 03:18:32;;;;;;;0.40;0.20;;;5.70;99.90;;;;;;5056686;28;20430;-59
2020/12/28 03:20:59;;;;;;;0.40;0.20;;;5.70;99.90;;;;;;5056910;28;20433;-58
2020/12/28 03:23:26;;;;;;;0.40;0.20;;;5.60;99.90;;;;;;5056179;28;20627;-59
2020/12/28 03:25:53;;;;;;;0.30;0.20;;;5.50;99.90;;;;;;5056016;28;20805;-58
2020/12/28 03:28:20;;;;;;;0.40;0.20;;;5.50;99.90;;;;;;5056215;28;20826;-58
2020/12/28 03:30:49;;;;;;;0.40;0.20;;;5.50;99.90;;;;;;5057063;28;20807;-58
2020/12/28 03:33:16;;;;;;;0.30;0.10;;;5.50;99.90;;;;;;5057329;28;20867;-58
2020/12/28 03:35:43;;;;;;;0.30;0.20;;;5.60;99.90;;;;;;5057282;28;20417;-58
2020/12/28 03:38:10;;;;;;;0.30;0.10;;;5.60;99.90;;;;;;5057324;28;20422;-57
2020/12/28 03:40:37;;;;;;;0.30;0.20;;;5.60;99.90;;;;;;5056409;28;20733;-57
2020/12/28 03:43:04;;;;;;;0.30;0.10;;;5.50;99.90;;;;;;5057547;28;20737;-58
2020/12/28 03:45:30;;;;;;;0.30;0.20;;;5.50;99.90;;;;;;5057761;28;20433;-57
2020/12/28 03:47:59;;;;;;;0.38;0.20;;;5.40;99.90;;;;;;5056253;28;20444;-58
2020/12/28 03:50:26;;;;;;;0.30;0.10;;;5.40;99.90;;;;;;5056127;28;20421;-57
2020/12/28 03:52:53;;;;;;;0.30;0.10;;;5.40;99.90;;;;;;5055019;28;20583;-57
2020/12/28 03:55:20;;;;;;;0.30;0.10;;;5.30;99.90;;;;;;5056267;28;20437;-56
2020/12/28 03:57:47;;;;;;;0.40;0.20;;;5.30;99.90;;;;;;5054983;28;20922;-57
2020/12/28 04:00:13;;;;;;;0.30;0.10;;;5.30;99.90;;;;;;5055563;28;20534;-57
2020/12/28 04:02:40;;;;;;;0.30;0.10;;;5.20;99.90;;;;;;5055660;28;20421;-57
2020/12/28 04:05:08;;;;;;;0.40;0.10;;;5.20;99.90;;;;;;5055410;28;20424;-57
2020/12/28 04:07:35;;;;;;;0.30;0.10;;;5.20;99.90;;;;;;5055971;28;20859;-57
2020/12/28 04:10:02;;;;;;;0.30;0.10;;;5.20;99.90;;;;;;5056765;28;20741;-57
2020/12/28 04:12:29;;;;;;;0.30;0.10;;;5.20;99.90;;;;;;5055134;28;20832;-57
2020/12/28 04:14:55;;;;;;;0.30;0.10;;;5.30;99.90;;;;;;5054757;28;20847;-57
2020/12/28 04:17:23;;;;;;;0.40;0.10;;;5.40;99.90;;;;;;5055853;28;20848;-57
2020/12/28 04:19:49;;;;;;;0.30;0.10;;;5.40;99.90;;;;;;5056181;28;20739;-57
2020/12/28 04:22:17;;;;;;;0.30;0.10;;;5.40;99.90;;;;;;5056473;28;20421;-53
2020/12/28 04:24:44;;;;;;;0.30;0.10;;;5.30;99.90;;;;;;5056460;28;20492;-55
2020/12/28 04:27:11;;;;;;;0.30;0.10;;;5.20;99.90;;;;;;5056615;28;20468;-56
2020/12/28 04:29:38;;;;;;;0.30;0.10;;;5.20;99.90;;;;;;5055394;28;20425;-54
2020/12/28 04:32:04;;;;;;;0.40;0.17;;;5.20;99.90;;;;;;5056232;28;20433;-55
2020/12/28 04:34:31;;;;;;;0.30;0.10;;;5.30;99.90;;;;;;5056840;28;20417;-56
2020/12/28 04:36:58;;;;;;;0.30;0.10;;;5.30;99.90;;;;;;5056548;28;20434;-55
2020/12/28 04:39:26;;;;;;;0.30;0.10;;;5.30;99.90;;;;;;5055970;28;20551;-55
2020/12/28 04:41:53;;;;;;;0.30;0.10;;;5.40;99.90;;;;;;5055962;28;20433;-56
2020/12/28 04:44:20;;;;;;;0.30;0.10;;;5.40;99.90;;;;;;5056568;28;20422;-56
2020/12/28 04:46:47;;;;;;;0.40;0.10;;;5.40;99.90;;;;;;5056251;28;20448;-56
2020/12/28 04:49:14;;;;;;;0.30;0.10;;;5.30;99.90;;;;;;5056180;28;20460;-54
2020/12/28 04:51:41;;;;;;;0.30;0.10;;;5.30;99.90;;;;;;5056245;28;20428;-56
2020/12/28 04:54:08;;;;;;;0.30;0.10;;;5.30;99.90;;;;;;5055727;28;20527;-54
2020/12/28 04:56:37;;;;;;;0.40;0.20;;;5.30;99.90;;;;;;5055529;28;20484;-56
2020/12/28 04:59:04;;;;;;;0.40;0.20;;;5.20;99.90;;;;;;5054900;28;20455;-55
2020/12/28 05:01:31;;;;;;;0.30;0.10;;;5.30;99.90;;;;;;5054626;28;20436;-56
2020/12/28 05:03:59;;;;;;;0.30;0.20;;;5.30;99.90;;;;;;5056071;28;20843;-56
2020/12/28 05:06:26;;;;;;;1.20;0.20;;;5.30;99.90;;;;;;5054497;28;20874;-55
2020/12/28 05:08:54;;;;;;;0.40;0.20;;;5.30;99.90;;;;;;5053412;28;20457;-54
2020/12/28 05:11:21;;;;;;;0.50;0.20;;;5.30;99.90;;;;;;5052803;28;20452;-55
2020/12/28 05:13:50;;;;;;;0.40;0.20;;;5.40;99.90;;;;;;5054148;28;20788;-56
2020/12/28 05:16:17;;;;;;;0.40;0.20;;;5.40;99.90;;;;;;5053915;28;20448;-54
2020/12/28 05:18:52;;;;;;;0.40;0.10;;;5.40;99.90;;;;;;5054861;28;20421;-56
2020/12/28 05:21:24;;;;;;;0.40;0.10;;;5.40;99.90;;;;;;5055606;28;20439;-56
2020/12/28 05:23:52;;;;;;;0.30;0.10;;;5.60;99.90;;;;;;5055075;28;20732;-52
2020/12/28 05:26:22;;;;;;;0.30;0.10;;;5.50;99.90;;;;;;5054561;28;20437;-54
2020/12/28 05:28:53;;;;;;;0.30;0.10;;;5.40;99.90;;;;;;5055376;28;20506;-55
2020/12/28 05:31:21;;;;;;;0.30;0.10;;;5.30;99.90;;;;;;5054253;28;20836;-56
2020/12/28 05:33:48;;;;;;;0.30;0.10;;;5.30;99.90;;;;;;5053969;28;20421;-56
2020/12/28 05:36:16;;;;;;;0.40;0.10;;;5.30;99.90;;;;;;5053638;28;20426;-56
2020/12/28 05:38:44;;;;;;;0.30;0.10;;;5.30;99.90;;;;;;5053553;28;20429;-57
2020/12/28 05:41:12;;;;;;;0.30;0.10;;;5.20;99.90;;;;;;5053411;28;20468;-57
2020/12/28 05:43:39;;;;;;;0.40;0.10;;;5.20;99.90;;;;;;5052179;28;20425;-56
2020/12/28 05:46:07;;;;;;;0.40;0.10;;;5.20;99.90;;;;;;5054623;28;20437;-56
2020/12/28 05:48:36;;;;;;;0.40;0.10;;;5.20;99.90;;;;;;5052417;28;20432;-55
2020/12/28 05:51:03;;;;;;;0.30;0.10;;;5.10;99.90;;;;;;5053096;28;20425;-56
2020/12/28 05:53:41;;;;;;;0.38;0.10;;;5.10;99.90;;;;;;5052476;28;20526;-56
2020/12/28 05:56:09;;;;;;;0.40;0.20;;;5.10;99.90;;;;;;5052798;28;20465;-56
2020/12/28 05:58:37;;;;;;;0.40;0.10;;;5.20;99.90;;;;;;5052795;28;20432;-56
2020/12/28 06:01:10;;;;;;;0.30;0.10;;;5.20;99.90;;;;;;5053133;28;20482;-56
2020/12/28 06:03:41;;;;;;;0.30;0.10;;;5.20;99.90;;;;;;5054550;28;20461;-56
2020/12/28 06:06:09;;;;;;;0.30;0.10;;;5.20;99.90;;;;;;5054472;28;20441;-55
2020/12/28 06:08:36;;;;;;;0.40;0.17;;;5.20;99.90;;;;;;5054481;28;20464;-57
2020/12/28 06:11:06;;;;;;;0.38;0.10;;;5.20;99.90;;;;;;5054909;28;20464;-56
2020/12/28 06:13:32;;;;;;;0.30;0.10;;;5.20;99.90;;;;;;5054458;28;20422;-57
2020/12/28 06:16:01;;;;;;;0.30;0.10;;;5.10;99.90;;;;;;5054200;28;20433;-57
2020/12/28 06:18:29;;;;;;;0.40;0.10;;;5.10;99.90;;;;;;5054909;28;20425;-57
2020/12/28 06:20:56;;;;;;;0.40;0.10;;;5.00;99.90;;;;;;5053632;28;20429;-54
2020/12/28 06:23:27;;;;;;;0.30;0.10;;;5.00;99.90;;;;;;5054500;28;20480;-55
2020/12/28 06:25:54;;;;;;;0.30;0.10;;;5.00;99.90;;;;;;5052533;28;20799;-55
2020/12/28 06:28:25;;;;;;;0.30;0.10;;;5.00;99.90;;;;;;5053525;28;20840;-56
2020/12/28 06:30:53;;;;;;;0.30;0.10;;;5.00;99.90;;;;;;5053111;28;20624;-56
2020/12/28 06:33:19;;;;;;;0.30;0.10;;;5.00;99.90;;;;;;5053979;28;20428;-56
2020/12/28 06:35:49;;;;;;;0.60;0.10;;;5.00;99.90;;;;;;5053127;28;20428;-55
2020/12/28 06:38:25;;;;;;;0.30;0.10;;;5.00;99.90;;;;;;5057666;28;20732;-56
2020/12/28 06:40:53;;;;;;;0.40;0.10;;;5.00;99.90;;;;;;5057684;28;20455;-56
2020/12/28 06:43:22;;;;;;;0.30;0.10;;;4.90;99.90;;;;;;5058242;28;20733;-55
2020/12/28 06:45:50;;;;;;;0.35;0.10;;;4.90;99.90;;;;;;5054190;28;20906;-57
2020/12/28 06:48:17;;;;;;;0.40;0.20;;;4.90;99.90;;;;;;5056146;28;20467;-57
2020/12/28 06:50:44;;;;;;;0.50;0.20;;;4.90;99.90;;;;;;5052659;28;20766;-56
2020/12/28 06:53:12;;;;;;;0.40;0.10;;;4.90;99.90;;;;;;5046996;28;20429;-56
2020/12/28 06:55:39;;;;;;;0.60;0.10;;;4.90;99.90;;;;;;5057009;28;20417;-57
2020/12/28 06:58:05;;;;;;;0.30;0.10;;;4.90;99.90;;;;;;5050742;28;20432;-57
2020/12/28 07:00:32;;;;;;;0.30;0.10;;;4.90;99.90;;;;;;5046452;28;20442;-57
2020/12/28 07:02:59;;;;;;;0.40;0.17;;;4.80;99.90;;;;;;5049684;28;20433;-57
2020/12/28 07:05:27;;;;;;;3.00;1.40;;;4.90;99.90;;;;;;5035953;28;20459;-60
2020/12/28 07:07:54;;;;;;;0.40;0.20;;;5.00;99.90;;;;;;5034968;28;20467;-57
2020/12/28 07:10:23;;;;;;;1.40;0.10;;;5.00;99.90;;;;;;5034531;28;20524;-54
2020/12/28 07:12:51;;;;;;;0.77;0.20;;;4.90;99.90;;;;;;5035737;28;20470;-55
2020/12/28 07:15:19;;;;;;;0.38;0.10;;;4.80;99.90;;;;;;5036871;28;20767;-56
2020/12/28 07:17:46;;;;;;;0.40;0.20;;;4.80;99.90;;;;;;5037435;28;20427;-54
2020/12/28 07:20:14;;;;;;;1.13;0.10;;;4.80;99.90;;;;;;5035408;28;20446;-52
2020/12/28 07:22:42;;;;;;;0.30;0.10;;;4.70;99.90;;;;;;5034917;28;20881;-53
2020/12/28 07:25:11;;;;;;;0.30;0.10;;;4.70;99.90;;;;;;5035968;28;20431;-53
2020/12/28 07:27:41;;;;;;;0.30;0.10;;;4.70;99.90;;;;;;5036791;28;20739;-57
2020/12/28 07:30:09;;;;;;;0.30;0.20;;;4.70;99.90;;;;;;5033706;28;20417;-56
2020/12/28 07:32:38;;;;;;;0.40;0.20;;;4.70;99.90;;;;;;5034636;28;20889;-54
2020/12/28 07:35:06;;;;;;;0.40;0.17;;;4.70;99.90;;;;;;5050692;28;20903;-54
2020/12/28 07:37:38;;;;;;;0.30;0.20;;;4.70;99.90;;;;;;5054969;28;20429;-54
2020/12/28 07:40:06;;;;;;;0.50;0.20;;;4.70;99.90;;;;;;5044856;28;20502;-54
2020/12/28 07:42:33;;;;;;;0.30;0.10;;;4.70;99.90;;;;;;5041508;28;20731;-54
2020/12/28 07:45:08;;;;;;;0.40;0.13;;;4.70;99.90;;;;;;5042591;28;20803;-55
2020/12/28 07:47:42;;;;;;;0.40;0.20;;;4.70;99.90;;;;;;5049184;28;20459;-56
2020/12/28 07:50:11;;;;;;;0.50;0.20;;;4.70;99.90;;;;;;5049385;28;20460;-53
2020/12/28 07:52:46;;;;;;;0.30;0.10;;;4.70;99.90;;;;;;5053941;28;20437;-53
2020/12/28 07:55:18;;;;;;;0.40;0.20;;;4.60;99.90;;;;;;5045790;28;20772;-53
2020/12/28 07:58:01;;;;;;;0.40;0.20;;;4.60;99.90;;;;;;5040191;28;20796;-53
2020/12/28 08:00:34;;;;;;;0.30;0.10;;;4.50;99.90;;;;;;5039823;28;20435;-53
2020/12/28 08:03:16;;;;;;;0.43;0.20;;;4.50;99.90;;;;;;5048058;28;20721;-54
2020/12/28 08:05:45;;;;;;;0.30;0.10;;;4.50;99.90;;;;;;5055372;28;20912;-54
2020/12/28 08:08:22;;;;;;;0.93;0.20;;;4.50;99.90;;;;;;5055251;28;20414;-54
2020/12/28 08:10:54;;;;;;;0.40;0.20;;;4.50;99.90;;;;;;5038882;28;20430;-53
2020/12/28 08:13:26;;;;;;;0.30;0.10;;;4.40;99.90;;;;;;5033223;28;20423;-53
2020/12/28 08:15:54;;;;;;;0.40;0.20;;;4.40;99.90;;;;;;5033249;28;20738;-55
2020/12/28 08:18:22;;;;;;;0.40;0.20;;;4.50;99.90;;;;;;5031531;28;20743;-54
2020/12/28 08:20:58;;;;;;;0.32;0.20;;;4.80;99.90;;;;;;5030980;28;20766;-56
2020/12/28 08:23:26;;;;;;;0.70;0.20;;;4.80;99.90;;;;;;5033905;28;20775;-55
2020/12/28 08:25:53;;;;;;;0.40;0.20;;;5.00;99.90;;;;;;5034193;28;20493;-55
2020/12/28 08:28:20;;;;;;;0.40;0.20;;;4.90;99.90;;;;;;5045723;28;20423;-51
2020/12/28 08:30:47;;;;;;;2.20;0.20;;;4.80;99.90;;;;;;5047110;28;20926;-53
2020/12/28 08:33:18;;;;;;;0.60;0.20;;;4.80;99.90;;;;;;5039424;28;20447;-53
2020/12/28 08:35:52;;;;;;;0.40;0.20;;;4.70;99.90;;;;;;5038504;28;20435;-56
2020/12/28 08:38:30;;;;;;;0.40;0.10;;;4.60;99.90;;;;;;5050897;28;20464;-53
2020/12/28 08:40:57;;;;;;;0.50;0.30;;;4.60;99.90;;;;;;5039733;28;20442;-55
2020/12/28 08:43:24;;;;;;;0.77;0.50;;;4.60;99.90;;;;;;5048787;28;20422;-54
2020/12/28 08:46:02;;;;;;;0.80;0.40;;;4.70;99.90;;;;;;5048702;28;20482;-55
2020/12/28 08:48:29;;;;;;;0.50;0.20;;;4.70;99.90;;;;;;5048795;28;20431;-55
2020/12/28 08:50:56;;;;;;;0.70;0.28;;;4.70;99.90;;;;;;5040126;28;20469;-52
2020/12/28 08:53:24;;;;;;;0.60;0.30;;;4.70;99.90;;;;;;5049143;28;20495;-51
2020/12/28 08:56:00;;;;;;;1.60;0.20;;;4.80;99.90;;;;;;5046917;28;20473;-54
2020/12/28 08:58:27;;;;;;;0.30;0.20;;;5.00;99.90;;;;;;5048788;28;22265;-52
2020/12/28 09:00:54;;;;;;;0.50;0.20;;;5.10;99.90;;;;;;5033354;28;20441;-54
2020/12/28 09:03:21;;;;;;;0.40;0.20;;;5.40;99.90;;;;;;5036749;28;20457;-53
2020/12/28 09:05:49;;;;;;;0.40;0.15;;;5.80;99.90;;;;;;5032100;28;20457;-53
2020/12/28 09:08:15;;;;;;;0.40;0.20;;;6.00;99.90;;;;;;5035366;28;20459;-53
2020/12/28 09:10:42;;;;;;;0.50;0.20;;;5.90;99.90;;;;;;5051490;28;20445;-50
2020/12/28 09:13:09;;;;;;;0.30;0.20;;;5.70;99.90;;;;;;5051418;28;20417;-53
2020/12/28 09:15:36;;;;;;;0.50;0.20;;;5.40;99.90;;;;;;5052696;28;20428;-52
2020/12/28 09:18:03;;;;;;;0.50;0.20;;;5.20;99.90;;;;;;5050092;28;20413;-50
2020/12/28 09:20:30;;;;;;;0.30;0.10;;;5.10;99.90;;;;;;5050959;28;20459;-49
2020/12/28 09:22:58;;;;;;;0.40;0.20;;;5.00;99.90;;;;;;5053127;28;20467;-55
2020/12/28 09:25:25;;;;;;;0.40;0.10;;;5.00;99.90;;;;;;5052698;28;20425;-52
2020/12/28 09:27:52;;;;;;;0.40;0.20;;;5.00;99.90;;;;;;5042889;28;20470;-59
2020/12/28 09:30:19;;;;;;;1.00;0.13;;;5.00;99.90;;;;;;5039678;28;20431;-52
2020/12/28 09:32:46;;;;;;;0.40;0.20;;;5.00;99.90;;;;;;5034313;28;20454;-54
2020/12/28 09:35:13;;;;;;;0.40;0.20;;;4.90;99.90;;;;;;5034370;28;20473;-53
2020/12/28 09:37:40;;;;;;;0.30;0.20;;;4.90;99.90;;;;;;5033537;28;20492;-54
2020/12/28 09:40:07;;;;;;;0.40;0.17;;;4.90;99.90;;;;;;5042306;28;20425;-54
2020/12/28 09:42:34;;;;;;;0.50;0.20;;;5.00;99.90;;;;;;5043497;28;20509;-55
2020/12/28 09:45:01;;;;;;;0.40;0.20;;;5.10;99.90;;;;;;5039666;28;20429;-55
2020/12/28 09:47:28;;;;;;;0.40;0.20;;;5.10;99.90;;;;;;5042542;28;20448;-55
2020/12/28 09:49:55;;;;;;;0.80;0.17;;;5.20;99.90;;;;;;5051126;28;20440;-54
2020/12/28 09:52:22;;;;;;;0.40;0.20;;;5.10;99.90;;;;;;5048567;28;20429;-54
2020/12/28 09:54:49;;;;;;;0.30;0.20;;;5.20;99.90;;;;;;5044968;28;20436;-53
2020/12/28 09:57:16;;;;;;;0.30;0.20;;;5.20;99.90;;;;;;5036649;28;20429;-50
2020/12/28 09:59:46;;;;;;;0.40;0.20;;;5.20;99.90;;;;;;5043893;28;20512;-51
2020/12/28 10:02:13;;;;;;;0.40;0.20;;;5.30;99.90;;;;;;5037312;28;20530;-53
2020/12/28 10:04:41;;;;;;;0.40;0.20;;;5.30;99.90;;;;;;5048952;28;20464;-51
2020/12/28 10:07:08;;;;;;;0.47;0.20;;;5.30;99.90;;;;;;5048373;28;20615;-52
2020/12/28 10:09:34;;;;;;;0.40;0.20;;;5.30;99.90;;;;;;5033011;28;20711;-52
2020/12/28 10:12:01;;;;;;;0.50;0.20;;;5.40;99.90;;;;;;5029777;28;20999;-51
2020/12/28 10:14:30;;;;;;;0.50;0.30;;;5.50;99.90;;;;;;5030214;28;20781;-52
2020/12/28 10:16:57;;;;;;;0.50;0.30;;;5.50;99.90;;;;;;5030763;28;20431;-53
2020/12/28 10:19:24;;;;;;;0.60;0.30;;;5.50;99.90;;;;;;5030826;28;20434;-54
2020/12/28 10:21:50;;;;;;;0.50;0.20;;;5.60;99.90;;;;;;5030258;28;20485;-54
2020/12/28 10:24:17;;;;;;;0.50;0.30;;;5.60;99.90;;;;;;5040215;28;20464;-52
2020/12/28 10:26:44;;;;;;;1.40;0.40;;;5.60;99.90;;;;;;5049536;28;20845;-59
2020/12/28 10:29:11;;;;;;;0.60;0.30;;;5.60;99.90;;;;;;5047684;28;20430;-59
2020/12/28 10:31:40;;;;;;;0.85;0.40;;;5.60;99.90;;;;;;5045514;28;20460;-60
2020/12/28 10:34:07;;;;;;;0.60;0.40;;;5.60;99.90;;;;;;5043714;28;20739;-59
2020/12/28 10:36:34;;;;;;;0.70;0.50;;;5.60;99.90;;;;;;5046151;28;20773;-59
2020/12/28 10:39:01;;;;;;;0.60;0.30;;;5.70;99.90;;;;;;5049422;28;20428;-60
2020/12/28 10:41:29;;;;;;;0.60;0.40;;;5.70;99.90;;;;;;5051031;28;20452;-59
2020/12/28 10:43:57;;;;;;;0.63;0.30;;;5.80;99.90;;;;;;5050708;28;20714;-59
2020/12/28 10:46:24;;;;;;;0.80;0.40;;;5.80;99.90;;;;;;5051600;28;20469;-60
2020/12/28 10:48:53;;;;;;;0.60;0.40;;;5.70;99.90;;;;;;5051990;28;20421;-59
2020/12/28 10:51:19;;;;;;;1.00;0.40;;;5.70;99.90;;;;;;5049065;28;20452;-60
2020/12/28 10:53:47;;;;;;;0.70;0.40;;;5.60;99.90;;;;;;5050503;28;20641;-59
2020/12/28 10:56:21;;;;;;;0.65;0.40;;;5.60;99.90;;;;;;5049498;28;20460;-57
2020/12/28 10:58:48;;;;;;;0.70;0.40;;;5.70;99.90;;;;;;5051867;28;20430;-59
2020/12/28 11:01:15;;;;;;;0.60;0.40;;;5.70;99.90;;;;;;5049437;28;20437;-58
2020/12/28 11:03:42;;;;;;;0.90;0.50;;;5.70;99.90;;;;;;5049839;28;20518;-58
2020/12/28 11:06:09;;;;;;;0.85;0.50;;;5.70;99.90;;;;;;5049619;28;20433;-58
2020/12/28 11:08:38;;;;;;;0.82;0.40;;;5.80;99.90;;;;;;5046765;28;20841;-59
2020/12/28 11:11:05;;;;;;;0.80;0.50;;;5.70;99.90;;;;;;5034044;28;20546;-59
2020/12/28 11:13:32;;;;;;;0.70;0.50;;;5.80;99.90;;;;;;5049617;28;20420;-59
2020/12/28 11:16:00;;;;;;;0.60;0.40;;;5.70;99.90;;;;;;5044668;28;20729;-58
2020/12/28 11:18:34;;;;;;;0.88;0.40;;;5.70;99.90;;;;;;5046872;28;20519;-60
2020/12/28 11:21:02;;;;;;;1.20;0.43;;;5.60;99.90;;;;;;5047160;28;20464;-58
2020/12/28 11:23:58;;;;;;;1.10;0.43;;;5.60;99.90;;;;;;5043184;28;20487;-59
2020/12/28 11:26:17;;;;;;;0.60;0.40;;;5.60;99.90;;;;;;5053122;28;20429;-60
2020/12/28 11:28:44;;;;;;;0.80;0.40;;;5.60;99.90;;;;;;5052488;28;20425;-59
2020/12/28 11:31:14;;;;;;;0.70;0.40;;;5.60;99.90;;;;;;5052092;28;20725;-59
2020/12/28 11:33:41;;;;;;;0.80;0.50;;;5.60;99.90;;;;;;5054059;28;20432;-59
2020/12/28 11:36:08;;;;;;;0.90;0.47;;;5.60;99.90;;;;;;5051807;28;20488;-59
2020/12/28 11:38:36;;;;;;;1.30;0.40;;;5.60;99.90;;;;;;5034462;28;20481;-59
2020/12/28 11:41:03;;;;;;;0.82;0.40;;;5.70;99.90;;;;;;5032448;28;20858;-59
2020/12/28 11:43:30;;;;;;;1.10;0.40;;;5.70;99.90;;;;;;5042841;28;20425;-58
2020/12/28 11:45:56;;;;;;;0.80;0.40;;;5.70;99.90;;;;;;5053316;28;20472;-58
2020/12/28 11:48:23;;;;;;;0.77;0.40;;;5.70;99.90;;;;;;5053874;28;20410;-58
2020/12/28 11:50:50;;;;;;;0.80;0.40;;;5.70;99.90;;;;;;5053525;28;20469;-58
2020/12/28 11:53:18;;;;;;;0.70;0.50;;;5.70;99.90;;;;;;5054633;28;20486;-59
2020/12/28 11:56:02;;;;;;;1.60;0.50;;;5.70;99.90;;;;;;5053969;28;20426;-58
2020/12/28 11:58:37;;;;;;;0.70;0.40;;;5.70;99.90;;;;;;5052373;28;20829;-59
2020/12/28 12:01:05;;;;;;;0.70;0.40;;;5.80;99.90;;;;;;5045451;28;20425;-58
2020/12/28 12:03:32;;;;;;;0.80;0.50;;;5.80;99.90;;;;;;5050390;28;20693;-59
2020/12/28 12:06:00;;;;;;;2.17;0.50;;;5.80;99.90;;;;;;5038906;28;20446;-58
2020/12/28 12:08:27;;;;;;;0.70;0.50;;;5.80;99.90;;;;;;5053478;28;20712;-59
2020/12/28 12:10:56;;;;;;;1.40;0.40;;;5.80;99.90;;;;;;5055106;28;20437;-59
2020/12/28 12:13:26;;;;;;;0.60;0.40;;;5.80;99.90;;;;;;5053494;28;20425;-57
2020/12/28 12:15:53;;;;;;;1.42;0.40;;;5.90;99.90;;;;;;5051586;28;20437;-58
2020/12/28 12:18:19;;;;;;;0.50;0.30;;;5.90;99.90;;;;;;5052735;28;20422;-59
2020/12/28 12:20:46;;;;;;;1.00;0.45;;;5.90;99.90;;;;;;5053149;28;20431;-59
2020/12/28 12:23:13;;;;;;;0.70;0.40;;;5.90;99.90;;;;;;5054995;28;20748;-58
2020/12/28 12:25:41;;;;;;;1.20;0.50;;;5.90;99.90;;;;;;5052579;28;20434;-58
2020/12/28 12:28:11;;;;;;;0.60;0.40;;;6.00;99.90;;;;;;5051761;28;20433;-58
2020/12/28 12:30:38;;;;;;;0.55;0.30;;;6.00;99.90;;;;;;5051671;28;20422;-58
2020/12/28 12:33:04;;;;;;;0.60;0.40;;;6.00;99.90;;;;;;5054368;28;20426;-58
2020/12/28 12:35:31;;;;;;;0.90;0.40;;;6.00;99.90;;;;;;5032303;28;20415;-60
2020/12/28 12:37:58;;;;;;;0.60;0.40;;;6.00;99.90;;;;;;5034392;28;21170;-58
2020/12/28 12:40:25;;;;;;;0.70;0.40;;;5.90;99.90;;;;;;5030598;28;20419;-59
2020/12/28 12:42:52;;;;;;;0.70;0.40;;;5.90;99.90;;;;;;5037929;28;20515;-59
2020/12/28 12:45:20;;;;;;;0.70;0.40;;;5.80;99.90;;;;;;5052305;28;20539;-57
2020/12/28 12:47:46;;;;;;;1.60;0.65;;;6.00;99.90;;;;;;5041630;28;20497;-59
2020/12/28 12:50:14;;;;;;;0.70;0.40;;;6.00;99.90;;;;;;5034261;28;20467;-58
2020/12/28 12:52:43;;;;;;;1.00;0.40;;;6.00;99.90;;;;;;5036667;28;20435;-58
2020/12/28 12:55:09;;;;;;;0.50;0.30;;;5.80;99.90;;;;;;5032249;28;20423;-58
2020/12/28 12:57:37;;;;;;;1.27;0.80;;;5.70;99.90;;;;;;5032136;28;20427;-58
2020/12/28 13:00:05;;;;;;;0.60;0.30;;;5.60;99.90;;;;;;5050127;28;20463;-58
2020/12/28 13:02:34;;;;;;;0.68;0.30;;;5.70;99.90;;;;;;5053554;28;20508;-59